sensor_id;sensor_type;location;lat;lon;timestamp;P1;durP1;ratioP1;P2;durP2;ratioP2
17201;SDS011;8717;53.588;10.176;2023-04-06T00:00:08;8.60;;;3.97;;
17201;SDS011;8717;53.588;10.176;2023-04-06T00:02:36;5.03;;;3.67;;
17201;SDS011;8717;53.588;10.176;2023-04-06T00:05:03;5.80;;;4.20;;
17201;SDS011;8717;53.588;10.176;2023-04-06T00:07:31;6.30;;;3.73;;
17201;SDS011;8717;53.588;10.176;2023-04-06T00:09:59;6.13;;;4.00;;
17201;SDS011;8717;53.588;10.176;2023-04-06T00:12:26;6.03;;;3.90;;
17201;SDS011;8717;53.588;10.176;2023-04-06T00:14:53;5.27;;;3.70;;
17201;SDS011;8717;53.588;10.176;2023-04-06T00:17:20;6.83;;;4.23;;
17201;SDS011;8717;53.588;10.176;2023-04-06T00:19:46;6.50;;;4.30;;
17201;SDS011;8717;53.588;10.176;2023-04-06T00:22:13;6.97;;;4.20;;
17201;SDS011;8717;53.588;10.176;2023-04-06T00:24:40;6.33;;;4.17;;
17201;SDS011;8717;53.588;10.176;2023-04-06T00:27:08;6.90;;;4.73;;
17201;SDS011;8717;53.588;10.176;2023-04-06T00:29:35;5.63;;;4.20;;
17201;SDS011;8717;53.588;10.176;2023-04-06T00:32:02;6.97;;;4.23;;
17201;SDS011;8717;53.588;10.176;2023-04-06T00:34:28;6.57;;;4.50;;
17201;SDS011;8717;53.588;10.176;2023-04-06T00:36:55;5.10;;;3.90;;
17201;SDS011;8717;53.588;10.176;2023-04-06T00:39:22;6.20;;;4.00;;
17201;SDS011;8717;53.588;10.176;2023-04-06T00:41:50;6.30;;;4.23;;
17201;SDS011;8717;53.588;10.176;2023-04-06T00:44:19;8.03;;;3.83;;
17201;SDS011;8717;53.588;10.176;2023-04-06T00:46:47;6.43;;;4.03;;
17201;SDS011;8717;53.588;10.176;2023-04-06T00:49:15;6.43;;;4.07;;
17201;SDS011;8717;53.588;10.176;2023-04-06T00:51:42;7.40;;;4.47;;
17201;SDS011;8717;53.588;10.176;2023-04-06T00:54:09;6.20;;;4.40;;
17201;SDS011;8717;53.588;10.176;2023-04-06T00:56:36;6.57;;;4.60;;
17201;SDS011;8717;53.588;10.176;2023-04-06T00:59:03;6.60;;;4.33;;
17201;SDS011;8717;53.588;10.176;2023-04-06T01:01:31;6.83;;;4.60;;
17201;SDS011;8717;53.588;10.176;2023-04-06T01:04:03;6.83;;;4.80;;
17201;SDS011;8717;53.588;10.176;2023-04-06T01:06:36;7.17;;;4.10;;
17201;SDS011;8717;53.588;10.176;2023-04-06T01:09:03;5.93;;;4.07;;
17201;SDS011;8717;53.588;10.176;2023-04-06T01:11:30;6.10;;;4.07;;
17201;SDS011;8717;53.588;10.176;2023-04-06T01:13:57;8.60;;;4.00;;
17201;SDS011;8717;53.588;10.176;2023-04-06T01:16:27;7.50;;;4.70;;
17201;SDS011;8717;53.588;10.176;2023-04-06T01:19:07;7.37;;;4.10;;
17201;SDS011;8717;53.588;10.176;2023-04-06T01:21:35;6.27;;;3.97;;
17201;SDS011;8717;53.588;10.176;2023-04-06T01:28:00;4.70;;;3.50;;
17201;SDS011;8717;53.588;10.176;2023-04-06T01:30:44;4.80;;;3.93;;
17201;SDS011;8717;53.588;10.176;2023-04-06T01:33:23;6.70;;;3.60;;
17201;SDS011;8717;53.588;10.176;2023-04-06T01:36:03;5.73;;;4.00;;
17201;SDS011;8717;53.588;10.176;2023-04-06T01:38:30;5.03;;;4.10;;
17201;SDS011;8717;53.588;10.176;2023-04-06T01:40:57;7.10;;;3.67;;
17201;SDS011;8717;53.588;10.176;2023-04-06T01:43:30;6.20;;;3.80;;
17201;SDS011;8717;53.588;10.176;2023-04-06T01:46:03;6.17;;;4.40;;
17201;SDS011;8717;53.588;10.176;2023-04-06T01:48:34;6.13;;;4.10;;
17201;SDS011;8717;53.588;10.176;2023-04-06T01:51:10;4.73;;;3.20;;
17201;SDS011;8717;53.588;10.176;2023-04-06T01:53:44;5.30;;;4.10;;
17201;SDS011;8717;53.588;10.176;2023-04-06T01:56:11;5.53;;;3.43;;
17201;SDS011;8717;53.588;10.176;2023-04-06T01:58:46;4.90;;;3.60;;
17201;SDS011;8717;53.588;10.176;2023-04-06T02:01:14;4.90;;;3.67;;
17201;SDS011;8717;53.588;10.176;2023-04-06T02:03:53;6.10;;;4.23;;
17201;SDS011;8717;53.588;10.176;2023-04-06T02:06:20;5.93;;;4.27;;
17201;SDS011;8717;53.588;10.176;2023-04-06T02:08:48;5.70;;;4.47;;
17201;SDS011;8717;53.588;10.176;2023-04-06T02:11:15;7.03;;;4.47;;
17201;SDS011;8717;53.588;10.176;2023-04-06T02:13:47;7.63;;;4.90;;
17201;SDS011;8717;53.588;10.176;2023-04-06T02:16:15;5.07;;;4.00;;
17201;SDS011;8717;53.588;10.176;2023-04-06T02:18:44;7.73;;;4.73;;
17201;SDS011;8717;53.588;10.176;2023-04-06T02:21:10;5.33;;;4.10;;
17201;SDS011;8717;53.588;10.176;2023-04-06T02:23:37;8.03;;;4.57;;
17201;SDS011;8717;53.588;10.176;2023-04-06T02:26:04;5.47;;;4.23;;
17201;SDS011;8717;53.588;10.176;2023-04-06T02:28:31;4.80;;;4.00;;
17201;SDS011;8717;53.588;10.176;2023-04-06T02:31:01;7.10;;;4.47;;
17201;SDS011;8717;53.588;10.176;2023-04-06T02:33:28;6.20;;;4.43;;
17201;SDS011;8717;53.588;10.176;2023-04-06T02:35:55;6.97;;;4.00;;
17201;SDS011;8717;53.588;10.176;2023-04-06T02:38:22;7.80;;;4.50;;
17201;SDS011;8717;53.588;10.176;2023-04-06T02:40:51;6.60;;;4.27;;
17201;SDS011;8717;53.588;10.176;2023-04-06T02:43:20;9.23;;;4.83;;
17201;SDS011;8717;53.588;10.176;2023-04-06T02:45:51;7.07;;;4.90;;
17201;SDS011;8717;53.588;10.176;2023-04-06T02:48:21;5.67;;;4.27;;
17201;SDS011;8717;53.588;10.176;2023-04-06T02:50:48;8.47;;;5.00;;
17201;SDS011;8717;53.588;10.176;2023-04-06T02:53:15;8.10;;;4.40;;
17201;SDS011;8717;53.588;10.176;2023-04-06T02:55:42;6.83;;;5.03;;
17201;SDS011;8717;53.588;10.176;2023-04-06T02:58:09;6.97;;;4.80;;
17201;SDS011;8717;53.588;10.176;2023-04-06T03:00:43;7.63;;;4.47;;
17201;SDS011;8717;53.588;10.176;2023-04-06T03:03:10;7.13;;;4.67;;
17201;SDS011;8717;53.588;10.176;2023-04-06T03:05:42;9.83;;;5.30;;
17201;SDS011;8717;53.588;10.176;2023-04-06T03:08:09;7.63;;;5.03;;
17201;SDS011;8717;53.588;10.176;2023-04-06T03:10:42;20.57;;;14.47;;
17201;SDS011;8717;53.588;10.176;2023-04-06T03:13:10;73.00;;;41.20;;
17201;SDS011;8717;53.588;10.176;2023-04-06T03:16:03;29.43;;;18.60;;
17201;SDS011;8717;53.588;10.176;2023-04-06T03:18:31;31.53;;;19.67;;
17201;SDS011;8717;53.588;10.176;2023-04-06T03:20:59;33.70;;;21.63;;
17201;SDS011;8717;53.588;10.176;2023-04-06T03:23:35;24.80;;;15.40;;
17201;SDS011;8717;53.588;10.176;2023-04-06T03:26:02;35.17;;;23.27;;
17201;SDS011;8717;53.588;10.176;2023-04-06T03:28:29;30.90;;;20.37;;
17201;SDS011;8717;53.588;10.176;2023-04-06T03:31:00;19.50;;;11.40;;
17201;SDS011;8717;53.588;10.176;2023-04-06T03:33:44;12.27;;;7.53;;
17201;SDS011;8717;53.588;10.176;2023-04-06T03:36:33;17.17;;;11.23;;
17201;SDS011;8717;53.588;10.176;2023-04-06T03:39:01;12.17;;;9.57;;
17201;SDS011;8717;53.588;10.176;2023-04-06T03:41:31;15.67;;;10.07;;
17201;SDS011;8717;53.588;10.176;2023-04-06T03:44:08;11.57;;;7.57;;
17201;SDS011;8717;53.588;10.176;2023-04-06T03:46:36;13.07;;;9.13;;
17201;SDS011;8717;53.588;10.176;2023-04-06T03:49:02;11.63;;;6.53;;
17201;SDS011;8717;53.588;10.176;2023-04-06T03:51:29;10.37;;;5.90;;
17201;SDS011;8717;53.588;10.176;2023-04-06T03:53:57;10.17;;;5.50;;
17201;SDS011;8717;53.588;10.176;2023-04-06T03:56:24;7.47;;;5.30;;
17201;SDS011;8717;53.588;10.176;2023-04-06T03:58:53;7.67;;;4.97;;
17201;SDS011;8717;53.588;10.176;2023-04-06T04:01:20;7.50;;;4.77;;
17201;SDS011;8717;53.588;10.176;2023-04-06T04:03:47;10.47;;;8.30;;
17201;SDS011;8717;53.588;10.176;2023-04-06T04:06:13;8.33;;;6.57;;
17201;SDS011;8717;53.588;10.176;2023-04-06T04:08:40;10.40;;;6.23;;
17201;SDS011;8717;53.588;10.176;2023-04-06T04:11:08;7.73;;;5.67;;
17201;SDS011;8717;53.588;10.176;2023-04-06T04:13:35;10.87;;;6.50;;
17201;SDS011;8717;53.588;10.176;2023-04-06T04:16:04;11.70;;;6.13;;
17201;SDS011;8717;53.588;10.176;2023-04-06T04:18:31;8.43;;;5.93;;
17201;SDS011;8717;53.588;10.176;2023-04-06T04:20:58;9.27;;;5.87;;
17201;SDS011;8717;53.588;10.176;2023-04-06T04:23:25;10.87;;;6.47;;
17201;SDS011;8717;53.588;10.176;2023-04-06T04:25:51;7.97;;;5.37;;
17201;SDS011;8717;53.588;10.176;2023-04-06T04:28:20;9.57;;;5.80;;
17201;SDS011;8717;53.588;10.176;2023-04-06T04:30:46;11.43;;;6.43;;
17201;SDS011;8717;53.588;10.176;2023-04-06T04:33:14;8.83;;;6.10;;
17201;SDS011;8717;53.588;10.176;2023-04-06T04:35:41;9.30;;;6.30;;
17201;SDS011;8717;53.588;10.176;2023-04-06T04:38:11;11.67;;;6.40;;
17201;SDS011;8717;53.588;10.176;2023-04-06T04:40:41;10.57;;;7.13;;
17201;SDS011;8717;53.588;10.176;2023-04-06T04:43:10;15.17;;;7.00;;
17201;SDS011;8717;53.588;10.176;2023-04-06T04:45:39;10.73;;;6.67;;
17201;SDS011;8717;53.588;10.176;2023-04-06T04:48:15;11.97;;;7.27;;
17201;SDS011;8717;53.588;10.176;2023-04-06T04:50:59;9.53;;;6.73;;
17201;SDS011;8717;53.588;10.176;2023-04-06T04:53:34;11.83;;;7.13;;
17201;SDS011;8717;53.588;10.176;2023-04-06T04:56:09;10.47;;;6.67;;
17201;SDS011;8717;53.588;10.176;2023-04-06T04:58:36;11.73;;;7.73;;
17201;SDS011;8717;53.588;10.176;2023-04-06T05:01:04;9.90;;;6.97;;
17201;SDS011;8717;53.588;10.176;2023-04-06T05:03:31;10.83;;;8.10;;
17201;SDS011;8717;53.588;10.176;2023-04-06T05:06:05;10.97;;;7.37;;
17201;SDS011;8717;53.588;10.176;2023-04-06T05:08:35;11.30;;;7.73;;
17201;SDS011;8717;53.588;10.176;2023-04-06T05:11:03;13.57;;;8.37;;
17201;SDS011;8717;53.588;10.176;2023-04-06T05:13:34;12.57;;;7.73;;
17201;SDS011;8717;53.588;10.176;2023-04-06T05:16:08;12.17;;;7.83;;
17201;SDS011;8717;53.588;10.176;2023-04-06T05:18:35;12.73;;;7.20;;
17201;SDS011;8717;53.588;10.176;2023-04-06T05:21:03;12.23;;;7.97;;
17201;SDS011;8717;53.588;10.176;2023-04-06T05:23:51;13.20;;;7.73;;
17201;SDS011;8717;53.588;10.176;2023-04-06T05:26:18;11.90;;;8.13;;
17201;SDS011;8717;53.588;10.176;2023-04-06T05:28:46;11.73;;;7.97;;
17201;SDS011;8717;53.588;10.176;2023-04-06T05:31:14;13.40;;;8.73;;
17201;SDS011;8717;53.588;10.176;2023-04-06T05:33:46;9.73;;;7.60;;
17201;SDS011;8717;53.588;10.176;2023-04-06T05:36:15;11.63;;;8.10;;
17201;SDS011;8717;53.588;10.176;2023-04-06T05:38:44;12.57;;;8.30;;
17201;SDS011;8717;53.588;10.176;2023-04-06T05:41:30;11.60;;;7.50;;
17201;SDS011;8717;53.588;10.176;2023-04-06T05:43:57;10.67;;;7.20;;
17201;SDS011;8717;53.588;10.176;2023-04-06T05:46:26;12.37;;;7.77;;
17201;SDS011;8717;53.588;10.176;2023-04-06T05:48:55;12.10;;;7.43;;
17201;SDS011;8717;53.588;10.176;2023-04-06T05:51:25;11.37;;;8.03;;
17201;SDS011;8717;53.588;10.176;2023-04-06T05:53:52;12.50;;;7.40;;
17201;SDS011;8717;53.588;10.176;2023-04-06T05:56:19;10.77;;;6.87;;
17201;SDS011;8717;53.588;10.176;2023-04-06T05:58:46;10.90;;;7.20;;
17201;SDS011;8717;53.588;10.176;2023-04-06T06:01:19;9.03;;;6.77;;
17201;SDS011;8717;53.588;10.176;2023-04-06T06:03:47;9.40;;;6.53;;
17201;SDS011;8717;53.588;10.176;2023-04-06T06:06:15;9.50;;;7.20;;
17201;SDS011;8717;53.588;10.176;2023-04-06T06:09:06;11.67;;;7.97;;
17201;SDS011;8717;53.588;10.176;2023-04-06T06:11:38;10.40;;;7.20;;
17201;SDS011;8717;53.588;10.176;2023-04-06T06:14:07;8.73;;;6.37;;
17201;SDS011;8717;53.588;10.176;2023-04-06T06:16:37;10.20;;;7.10;;
17201;SDS011;8717;53.588;10.176;2023-04-06T06:19:06;9.10;;;6.70;;
17201;SDS011;8717;53.588;10.176;2023-04-06T06:21:33;9.63;;;6.80;;
17201;SDS011;8717;53.588;10.176;2023-04-06T06:24:02;8.80;;;6.67;;
17201;SDS011;8717;53.588;10.176;2023-04-06T06:26:29;9.30;;;6.37;;
17201;SDS011;8717;53.588;10.176;2023-04-06T06:28:57;10.23;;;6.97;;
17201;SDS011;8717;53.588;10.176;2023-04-06T06:31:24;9.70;;;6.70;;
17201;SDS011;8717;53.588;10.176;2023-04-06T06:33:51;8.13;;;6.80;;
17201;SDS011;8717;53.588;10.176;2023-04-06T06:36:20;9.30;;;6.70;;
17201;SDS011;8717;53.588;10.176;2023-04-06T06:38:48;8.43;;;6.43;;
17201;SDS011;8717;53.588;10.176;2023-04-06T06:41:17;10.03;;;6.50;;
17201;SDS011;8717;53.588;10.176;2023-04-06T06:43:44;9.13;;;6.33;;
17201;SDS011;8717;53.588;10.176;2023-04-06T06:46:11;9.00;;;7.03;;
17201;SDS011;8717;53.588;10.176;2023-04-06T06:48:39;10.03;;;7.00;;
17201;SDS011;8717;53.588;10.176;2023-04-06T06:51:05;8.47;;;6.30;;
17201;SDS011;8717;53.588;10.176;2023-04-06T06:53:33;9.30;;;6.90;;
17201;SDS011;8717;53.588;10.176;2023-04-06T06:56:00;9.50;;;6.20;;
17201;SDS011;8717;53.588;10.176;2023-04-06T06:58:28;9.67;;;6.43;;
17201;SDS011;8717;53.588;10.176;2023-04-06T07:00:55;8.70;;;5.97;;
17201;SDS011;8717;53.588;10.176;2023-04-06T07:03:23;10.40;;;6.03;;
17201;SDS011;8717;53.588;10.176;2023-04-06T07:05:50;8.27;;;6.10;;
17201;SDS011;8717;53.588;10.176;2023-04-06T07:08:19;8.17;;;5.83;;
17201;SDS011;8717;53.588;10.176;2023-04-06T07:10:47;7.73;;;6.03;;
17201;SDS011;8717;53.588;10.176;2023-04-06T07:13:15;7.43;;;5.80;;
17201;SDS011;8717;53.588;10.176;2023-04-06T07:15:45;5.70;;;5.10;;
17201;SDS011;8717;53.588;10.176;2023-04-06T07:18:12;9.80;;;5.93;;
17201;SDS011;8717;53.588;10.176;2023-04-06T07:20:40;8.00;;;5.57;;
17201;SDS011;8717;53.588;10.176;2023-04-06T07:23:06;6.37;;;5.00;;
17201;SDS011;8717;53.588;10.176;2023-04-06T07:25:33;6.23;;;4.83;;
17201;SDS011;8717;53.588;10.176;2023-04-06T07:28:02;6.87;;;5.47;;
17201;SDS011;8717;53.588;10.176;2023-04-06T07:30:31;7.50;;;5.60;;
17201;SDS011;8717;53.588;10.176;2023-04-06T07:32:58;10.33;;;5.47;;
17201;SDS011;8717;53.588;10.176;2023-04-06T07:35:26;6.23;;;5.17;;
17201;SDS011;8717;53.588;10.176;2023-04-06T07:37:55;10.43;;;5.13;;
17201;SDS011;8717;53.588;10.176;2023-04-06T07:40:22;8.23;;;5.20;;
17201;SDS011;8717;53.588;10.176;2023-04-06T07:42:52;6.53;;;4.70;;
17201;SDS011;8717;53.588;10.176;2023-04-06T07:45:20;7.77;;;4.93;;
17201;SDS011;8717;53.588;10.176;2023-04-06T07:47:47;5.97;;;5.10;;
17201;SDS011;8717;53.588;10.176;2023-04-06T07:50:13;5.90;;;4.57;;
17201;SDS011;8717;53.588;10.176;2023-04-06T07:52:40;6.00;;;5.10;;
17201;SDS011;8717;53.588;10.176;2023-04-06T07:55:08;8.03;;;4.80;;
17201;SDS011;8717;53.588;10.176;2023-04-06T07:57:35;6.67;;;4.13;;
17201;SDS011;8717;53.588;10.176;2023-04-06T08:00:01;6.27;;;4.30;;
17201;SDS011;8717;53.588;10.176;2023-04-06T08:02:38;7.20;;;4.20;;
17201;SDS011;8717;53.588;10.176;2023-04-06T08:05:05;5.47;;;4.27;;
17201;SDS011;8717;53.588;10.176;2023-04-06T08:07:32;5.57;;;3.70;;
17201;SDS011;8717;53.588;10.176;2023-04-06T08:09:59;5.63;;;4.00;;
17201;SDS011;8717;53.588;10.176;2023-04-06T08:12:28;5.40;;;4.00;;
17201;SDS011;8717;53.588;10.176;2023-04-06T08:14:55;5.37;;;4.00;;
17201;SDS011;8717;53.588;10.176;2023-04-06T08:17:22;6.53;;;3.83;;
17201;SDS011;8717;53.588;10.176;2023-04-06T08:19:50;5.90;;;4.00;;
17201;SDS011;8717;53.588;10.176;2023-04-06T08:22:17;5.53;;;3.90;;
17201;SDS011;8717;53.588;10.176;2023-04-06T08:24:43;6.00;;;4.00;;
17201;SDS011;8717;53.588;10.176;2023-04-06T08:27:10;5.33;;;3.80;;
17201;SDS011;8717;53.588;10.176;2023-04-06T08:29:39;6.00;;;3.50;;
17201;SDS011;8717;53.588;10.176;2023-04-06T08:32:06;5.97;;;3.90;;
17201;SDS011;8717;53.588;10.176;2023-04-06T08:34:32;5.20;;;3.80;;
17201;SDS011;8717;53.588;10.176;2023-04-06T08:37:02;6.00;;;4.27;;
17201;SDS011;8717;53.588;10.176;2023-04-06T08:39:29;7.30;;;4.20;;
17201;SDS011;8717;53.588;10.176;2023-04-06T08:41:58;5.07;;;3.80;;
17201;SDS011;8717;53.588;10.176;2023-04-06T08:44:28;4.80;;;3.60;;
17201;SDS011;8717;53.588;10.176;2023-04-06T08:46:55;6.80;;;3.80;;
17201;SDS011;8717;53.588;10.176;2023-04-06T08:49:24;5.00;;;3.40;;
17201;SDS011;8717;53.588;10.176;2023-04-06T08:51:52;5.20;;;4.13;;
17201;SDS011;8717;53.588;10.176;2023-04-06T08:54:20;4.03;;;3.00;;
17201;SDS011;8717;53.588;10.176;2023-04-06T08:56:47;5.30;;;3.87;;
17201;SDS011;8717;53.588;10.176;2023-04-06T08:59:14;5.20;;;3.60;;
17201;SDS011;8717;53.588;10.176;2023-04-06T09:01:42;10.10;;;3.70;;
17201;SDS011;8717;53.588;10.176;2023-04-06T09:04:10;4.97;;;3.40;;
17201;SDS011;8717;53.588;10.176;2023-04-06T09:06:38;4.00;;;3.20;;
17201;SDS011;8717;53.588;10.176;2023-04-06T09:09:05;5.47;;;3.23;;
17201;SDS011;8717;53.588;10.176;2023-04-06T09:11:47;4.63;;;3.20;;
17201;SDS011;8717;53.588;10.176;2023-04-06T09:14:14;5.37;;;3.40;;
17201;SDS011;8717;53.588;10.176;2023-04-06T09:16:42;4.80;;;2.83;;
17201;SDS011;8717;53.588;10.176;2023-04-06T09:19:10;5.23;;;3.40;;
17201;SDS011;8717;53.588;10.176;2023-04-06T09:21:38;4.03;;;3.10;;
17201;SDS011;8717;53.588;10.176;2023-04-06T09:24:06;5.17;;;3.30;;
17201;SDS011;8717;53.588;10.176;2023-04-06T09:26:44;4.07;;;3.00;;
17201;SDS011;8717;53.588;10.176;2023-04-06T09:29:21;4.67;;;3.10;;
17201;SDS011;8717;53.588;10.176;2023-04-06T09:31:48;5.80;;;3.07;;
17201;SDS011;8717;53.588;10.176;2023-04-06T09:34:20;4.63;;;3.30;;
17201;SDS011;8717;53.588;10.176;2023-04-06T09:36:47;4.07;;;3.00;;
17201;SDS011;8717;53.588;10.176;2023-04-06T09:39:13;3.63;;;2.70;;
17201;SDS011;8717;53.588;10.176;2023-04-06T09:41:40;4.10;;;2.93;;
17201;SDS011;8717;53.588;10.176;2023-04-06T09:44:07;4.17;;;2.90;;
17201;SDS011;8717;53.588;10.176;2023-04-06T09:46:37;4.87;;;3.10;;
17201;SDS011;8717;53.588;10.176;2023-04-06T09:49:05;6.07;;;2.80;;
17201;SDS011;8717;53.588;10.176;2023-04-06T09:51:36;4.97;;;3.30;;
17201;SDS011;8717;53.588;10.176;2023-04-06T09:54:03;4.47;;;3.03;;
17201;SDS011;8717;53.588;10.176;2023-04-06T09:56:33;5.90;;;3.47;;
17201;SDS011;8717;53.588;10.176;2023-04-06T09:59:08;5.50;;;3.63;;
17201;SDS011;8717;53.588;10.176;2023-04-06T10:01:40;5.67;;;3.40;;
17201;SDS011;8717;53.588;10.176;2023-04-06T10:04:13;6.10;;;4.00;;
17201;SDS011;8717;53.588;10.176;2023-04-06T10:06:48;4.50;;;3.10;;
17201;SDS011;8717;53.588;10.176;2023-04-06T10:09:17;5.10;;;3.50;;
17201;SDS011;8717;53.588;10.176;2023-04-06T10:11:45;3.63;;;3.17;;
17201;SDS011;8717;53.588;10.176;2023-04-06T10:14:13;5.40;;;3.17;;
17201;SDS011;8717;53.588;10.176;2023-04-06T10:16:43;5.00;;;2.97;;
17201;SDS011;8717;53.588;10.176;2023-04-06T10:19:13;2.77;;;2.50;;
17201;SDS011;8717;53.588;10.176;2023-04-06T10:21:45;4.67;;;3.13;;
17201;SDS011;8717;53.588;10.176;2023-04-06T10:24:16;4.30;;;3.03;;
17201;SDS011;8717;53.588;10.176;2023-04-06T10:26:43;4.10;;;3.30;;
17201;SDS011;8717;53.588;10.176;2023-04-06T10:29:23;6.13;;;3.93;;
17201;SDS011;8717;53.588;10.176;2023-04-06T10:31:54;6.53;;;3.70;;
17201;SDS011;8717;53.588;10.176;2023-04-06T10:34:23;6.23;;;3.90;;
17201;SDS011;8717;53.588;10.176;2023-04-06T10:37:10;5.87;;;3.70;;
17201;SDS011;8717;53.588;10.176;2023-04-06T10:39:45;6.43;;;4.13;;
17201;SDS011;8717;53.588;10.176;2023-04-06T10:42:12;4.43;;;3.63;;
17201;SDS011;8717;53.588;10.176;2023-04-06T10:44:42;4.03;;;3.23;;
17201;SDS011;8717;53.588;10.176;2023-04-06T10:47:16;5.10;;;3.90;;
17201;SDS011;8717;53.588;10.176;2023-04-06T10:49:44;5.07;;;3.70;;
17201;SDS011;8717;53.588;10.176;2023-04-06T10:52:10;8.50;;;4.60;;
17201;SDS011;8717;53.588;10.176;2023-04-06T10:54:40;5.53;;;4.17;;
17201;SDS011;8717;53.588;10.176;2023-04-06T10:57:08;6.20;;;4.50;;
17201;SDS011;8717;53.588;10.176;2023-04-06T10:59:35;7.63;;;5.20;;
17201;SDS011;8717;53.588;10.176;2023-04-06T11:02:01;5.67;;;4.40;;
17201;SDS011;8717;53.588;10.176;2023-04-06T11:04:29;7.17;;;4.43;;
17201;SDS011;8717;53.588;10.176;2023-04-06T11:06:56;4.70;;;3.93;;
17201;SDS011;8717;53.588;10.176;2023-04-06T11:09:24;7.10;;;4.30;;
17201;SDS011;8717;53.588;10.176;2023-04-06T11:11:55;7.23;;;4.70;;
17201;SDS011;8717;53.588;10.176;2023-04-06T11:14:22;6.13;;;4.93;;
17201;SDS011;8717;53.588;10.176;2023-04-06T11:16:49;6.30;;;4.63;;
17201;SDS011;8717;53.588;10.176;2023-04-06T11:19:16;9.90;;;5.67;;
17201;SDS011;8717;53.588;10.176;2023-04-06T11:21:48;6.73;;;5.13;;
17201;SDS011;8717;53.588;10.176;2023-04-06T11:24:15;5.37;;;4.70;;
17201;SDS011;8717;53.588;10.176;2023-04-06T11:26:45;7.33;;;5.30;;
17201;SDS011;8717;53.588;10.176;2023-04-06T11:29:16;5.73;;;4.87;;
17201;SDS011;8717;53.588;10.176;2023-04-06T11:31:45;6.90;;;5.40;;
17201;SDS011;8717;53.588;10.176;2023-04-06T11:34:15;6.57;;;5.60;;
17201;SDS011;8717;53.588;10.176;2023-04-06T11:36:45;7.40;;;5.30;;
17201;SDS011;8717;53.588;10.176;2023-04-06T11:39:13;6.50;;;5.13;;
17201;SDS011;8717;53.588;10.176;2023-04-06T11:41:46;7.20;;;5.70;;
17201;SDS011;8717;53.588;10.176;2023-04-06T11:44:15;7.67;;;5.47;;
17201;SDS011;8717;53.588;10.176;2023-04-06T11:46:52;8.83;;;6.20;;
17201;SDS011;8717;53.588;10.176;2023-04-06T11:49:20;7.83;;;6.47;;
17201;SDS011;8717;53.588;10.176;2023-04-06T11:51:48;7.97;;;5.70;;
17201;SDS011;8717;53.588;10.176;2023-04-06T11:54:15;7.73;;;5.93;;
17201;SDS011;8717;53.588;10.176;2023-04-06T11:56:42;8.17;;;5.70;;
17201;SDS011;8717;53.588;10.176;2023-04-06T11:59:12;7.43;;;6.03;;
17201;SDS011;8717;53.588;10.176;2023-04-06T12:01:44;7.60;;;6.23;;
17201;SDS011;8717;53.588;10.176;2023-04-06T12:04:11;6.83;;;5.87;;
17201;SDS011;8717;53.588;10.176;2023-04-06T12:06:38;9.87;;;6.40;;
17201;SDS011;8717;53.588;10.176;2023-04-06T12:09:06;8.47;;;6.10;;
17201;SDS011;8717;53.588;10.176;2023-04-06T12:11:35;6.63;;;5.73;;
17201;SDS011;8717;53.588;10.176;2023-04-06T12:14:02;9.60;;;5.87;;
17201;SDS011;8717;53.588;10.176;2023-04-06T12:16:30;6.73;;;5.80;;
17201;SDS011;8717;53.588;10.176;2023-04-06T12:18:57;9.07;;;6.23;;
17201;SDS011;8717;53.588;10.176;2023-04-06T12:21:23;6.63;;;5.70;;
17201;SDS011;8717;53.588;10.176;2023-04-06T12:23:50;7.27;;;5.63;;
17201;SDS011;8717;53.588;10.176;2023-04-06T12:26:18;8.23;;;5.67;;
17201;SDS011;8717;53.588;10.176;2023-04-06T12:28:45;7.97;;;5.97;;
17201;SDS011;8717;53.588;10.176;2023-04-06T12:31:14;7.40;;;5.57;;
17201;SDS011;8717;53.588;10.176;2023-04-06T12:33:41;7.03;;;5.77;;
17201;SDS011;8717;53.588;10.176;2023-04-06T12:36:11;7.33;;;5.40;;
17201;SDS011;8717;53.588;10.176;2023-04-06T12:38:40;6.53;;;5.47;;
17201;SDS011;8717;53.588;10.176;2023-04-06T12:41:09;7.87;;;5.73;;
17201;SDS011;8717;53.588;10.176;2023-04-06T12:43:37;7.87;;;5.70;;
17201;SDS011;8717;53.588;10.176;2023-04-06T12:46:05;7.93;;;5.83;;
17201;SDS011;8717;53.588;10.176;2023-04-06T12:48:31;7.40;;;6.20;;
17201;SDS011;8717;53.588;10.176;2023-04-06T12:50:59;6.77;;;5.20;;
17201;SDS011;8717;53.588;10.176;2023-04-06T12:53:26;7.50;;;5.93;;
17201;SDS011;8717;53.588;10.176;2023-04-06T12:55:54;7.20;;;5.97;;
17201;SDS011;8717;53.588;10.176;2023-04-06T12:58:21;7.03;;;5.70;;
17201;SDS011;8717;53.588;10.176;2023-04-06T13:00:49;6.43;;;5.60;;
17201;SDS011;8717;53.588;10.176;2023-04-06T13:03:16;7.40;;;5.60;;
17201;SDS011;8717;53.588;10.176;2023-04-06T13:05:43;8.20;;;5.73;;
17201;SDS011;8717;53.588;10.176;2023-04-06T13:08:11;6.17;;;5.40;;
17201;SDS011;8717;53.588;10.176;2023-04-06T13:10:38;6.10;;;5.47;;
17201;SDS011;8717;53.588;10.176;2023-04-06T13:13:09;8.73;;;6.07;;
17201;SDS011;8717;53.588;10.176;2023-04-06T13:15:36;7.87;;;5.63;;
17201;SDS011;8717;53.588;10.176;2023-04-06T13:18:04;8.80;;;6.33;;
17201;SDS011;8717;53.588;10.176;2023-04-06T13:20:31;8.70;;;5.80;;
17201;SDS011;8717;53.588;10.176;2023-04-06T13:22:58;7.83;;;5.87;;
17201;SDS011;8717;53.588;10.176;2023-04-06T13:25:25;6.47;;;5.60;;
17201;SDS011;8717;53.588;10.176;2023-04-06T13:27:53;6.83;;;5.83;;
17201;SDS011;8717;53.588;10.176;2023-04-06T13:30:21;6.83;;;5.40;;
17201;SDS011;8717;53.588;10.176;2023-04-06T13:32:48;6.50;;;5.83;;
17201;SDS011;8717;53.588;10.176;2023-04-06T13:35:18;7.13;;;5.83;;
17201;SDS011;8717;53.588;10.176;2023-04-06T13:37:45;7.60;;;5.63;;
17201;SDS011;8717;53.588;10.176;2023-04-06T13:40:13;7.27;;;6.00;;
17201;SDS011;8717;53.588;10.176;2023-04-06T13:42:40;6.60;;;5.90;;
17201;SDS011;8717;53.588;10.176;2023-04-06T13:45:10;7.30;;;5.70;;
17201;SDS011;8717;53.588;10.176;2023-04-06T13:47:37;7.27;;;5.57;;
17201;SDS011;8717;53.588;10.176;2023-04-06T13:50:04;9.07;;;5.77;;
17201;SDS011;8717;53.588;10.176;2023-04-06T13:52:33;10.57;;;5.63;;
17201;SDS011;8717;53.588;10.176;2023-04-06T13:55:01;7.73;;;6.73;;
17201;SDS011;8717;53.588;10.176;2023-04-06T13:57:28;8.13;;;6.13;;
17201;SDS011;8717;53.588;10.176;2023-04-06T13:59:55;8.50;;;6.60;;
17201;SDS011;8717;53.588;10.176;2023-04-06T14:02:22;8.63;;;6.03;;
17201;SDS011;8717;53.588;10.176;2023-04-06T14:04:52;8.50;;;6.70;;
17201;SDS011;8717;53.588;10.176;2023-04-06T14:07:20;7.30;;;6.50;;
17201;SDS011;8717;53.588;10.176;2023-04-06T14:09:48;6.23;;;5.63;;
17201;SDS011;8717;53.588;10.176;2023-04-06T14:12:14;7.90;;;5.80;;
17201;SDS011;8717;53.588;10.176;2023-04-06T14:14:41;8.03;;;6.30;;
17201;SDS011;8717;53.588;10.176;2023-04-06T14:17:08;7.30;;;5.87;;
17201;SDS011;8717;53.588;10.176;2023-04-06T14:19:35;7.03;;;6.33;;
17201;SDS011;8717;53.588;10.176;2023-04-06T14:22:01;7.50;;;6.23;;
17201;SDS011;8717;53.588;10.176;2023-04-06T14:24:29;7.73;;;6.43;;
17201;SDS011;8717;53.588;10.176;2023-04-06T14:26:57;7.17;;;6.47;;
17201;SDS011;8717;53.588;10.176;2023-04-06T14:29:24;7.90;;;6.10;;
17201;SDS011;8717;53.588;10.176;2023-04-06T14:31:51;9.17;;;6.80;;
17201;SDS011;8717;53.588;10.176;2023-04-06T14:34:17;7.30;;;6.30;;
17201;SDS011;8717;53.588;10.176;2023-04-06T14:36:44;8.00;;;5.73;;
17201;SDS011;8717;53.588;10.176;2023-04-06T14:39:11;7.80;;;6.10;;
17201;SDS011;8717;53.588;10.176;2023-04-06T14:41:37;7.50;;;6.50;;
17201;SDS011;8717;53.588;10.176;2023-04-06T14:44:06;6.43;;;5.80;;
17201;SDS011;8717;53.588;10.176;2023-04-06T14:46:37;7.20;;;6.10;;
17201;SDS011;8717;53.588;10.176;2023-04-06T14:49:06;9.80;;;6.53;;
17201;SDS011;8717;53.588;10.176;2023-04-06T14:51:33;6.40;;;5.67;;
17201;SDS011;8717;53.588;10.176;2023-04-06T14:54:00;6.90;;;6.07;;
17201;SDS011;8717;53.588;10.176;2023-04-06T14:56:28;6.87;;;6.00;;
17201;SDS011;8717;53.588;10.176;2023-04-06T14:58:57;6.80;;;5.93;;